createdAt,value
2017-06-27T00:00:34.658Z,15.11
2017-06-27T00:01:44.925Z,15.12
2017-06-27T00:02:55.251Z,14.97
2017-06-27T00:04:05.530Z,15.02
2017-06-27T00:05:15.471Z,15.02
2017-06-27T00:06:25.992Z,14.92
2017-06-27T00:07:36.245Z,14.97
2017-06-27T00:08:46.505Z,14.94
2017-06-27T00:09:56.460Z,14.87
2017-06-27T00:11:06.708Z,14.9
2017-06-27T00:12:17.221Z,14.89
2017-06-27T00:13:27.187Z,14.85
2017-06-27T00:14:37.451Z,14.9
2017-06-27T00:15:47.698Z,14.81
2017-06-27T00:16:57.947Z,14.78
2017-06-27T00:18:08.459Z,14.81
2017-06-27T00:19:18.940Z,14.79
2017-06-27T00:20:29.210Z,14.89
2017-06-27T00:21:39.462Z,14.87
2017-06-27T00:22:49.112Z,14.82
2017-06-27T00:23:59.627Z,14.79
2017-06-27T00:25:09.273Z,14.79
2017-06-27T00:26:19.212Z,14.82
2017-06-27T00:27:29.203Z,14.86
2017-06-27T00:28:39.456Z,14.85
2017-06-27T00:29:49.970Z,14.77
2017-06-27T00:31:00.228Z,14.81
2017-06-27T00:32:10.641Z,14.73
2017-06-27T00:33:20.908Z,14.77
2017-06-27T00:34:31.172Z,14.79
2017-06-27T00:35:41.686Z,14.77
2017-06-27T00:36:51.647Z,14.7
2017-06-27T00:38:01.904Z,14.63
2017-06-27T00:39:12.148Z,14.58
2017-06-27T00:40:22.389Z,14.52
2017-06-27T00:41:32.587Z,14.53
2017-06-27T00:42:42.833Z,14.56
2017-06-27T00:43:52.777Z,14.52
2017-06-27T00:45:02.411Z,14.52
2017-06-27T00:46:12.672Z,14.56
2017-06-27T00:47:23.187Z,14.51
2017-06-27T00:48:33.154Z,14.49
2017-06-27T00:49:43.104Z,14.43
2017-06-27T00:50:53.349Z,14.45
2017-06-27T00:52:03.591Z,14.26
2017-06-27T00:53:14.101Z,14.33
2017-06-27T00:54:24.049Z,14.31
2017-06-27T00:55:34.303Z,14.33
2017-06-27T00:56:44.571Z,14.23
2017-06-27T00:57:54.513Z,14.12
2017-06-27T00:59:05.034Z,14.12
2017-06-27T01:00:15.287Z,14.15
2017-06-27T01:01:25.562Z,14.08
2017-06-27T01:02:35.527Z,14.03
2017-06-27T01:03:45.788Z,14
2017-06-27T01:04:56.313Z,13.98
2017-06-27T01:06:06.247Z,13.94
2017-06-27T01:07:16.518Z,13.87
2017-06-27T01:08:26.773Z,13.89
2017-06-27T01:09:37.012Z,13.87
2017-06-27T01:10:47.501Z,13.8
2017-06-27T01:11:57.157Z,13.78
2017-06-27T01:13:07.421Z,13.76
2017-06-27T01:14:17.671Z,13.78
2017-06-27T01:15:27.917Z,13.75
2017-06-27T01:16:38.117Z,13.76
2017-06-27T01:17:48.430Z,13.82
2017-06-27T01:18:58.370Z,13.75
2017-06-27T01:20:08.634Z,13.75
2017-06-27T01:21:18.893Z,13.71
2017-06-27T01:22:29.092Z,13.7
2017-06-27T01:23:39.331Z,13.62
2017-06-27T01:24:49.269Z,13.7
2017-06-27T01:25:59.535Z,13.62
2017-06-27T01:27:09.790Z,13.68
2017-06-27T01:28:20.273Z,13.62
2017-06-27T01:29:30.542Z,13.65
2017-06-27T01:30:40.799Z,13.62
2017-06-27T01:31:51.039Z,13.62
2017-06-27T01:33:01.299Z,13.65
2017-06-27T01:34:11.796Z,13.65
2017-06-27T01:35:22.042Z,13.65
2017-06-27T01:36:31.684Z,13.67
2017-06-27T01:37:41.927Z,13.65
2017-06-27T01:38:51.876Z,13.64
2017-06-27T01:40:02.384Z,13.64
2017-06-27T01:41:12.318Z,13.65
2017-06-27T01:42:22.576Z,13.58
2017-06-27T01:43:32.829Z,13.62
2017-06-27T01:44:42.462Z,13.58
2017-06-27T01:45:52.657Z,13.6
2017-06-27T01:47:02.602Z,13.61
2017-06-27T01:48:12.867Z,13.57
2017-06-27T01:49:23.121Z,13.57
2017-06-27T01:50:33.369Z,13.55
2017-06-27T01:51:43.882Z,13.5
2017-06-27T01:52:54.137Z,13.47
2017-06-27T01:54:04.089Z,13.45
2017-06-27T01:55:14.046Z,13.42
2017-06-27T01:56:24.308Z,13.45
2017-06-27T01:57:34.501Z,13.45
2017-06-27T01:58:44.449Z,13.42
2017-06-27T01:59:54.699Z,13.46
2017-06-27T02:01:04.949Z,13.46
2017-06-27T02:02:15.202Z,13.45
2017-06-27T02:03:25.406Z,13.4
2017-06-27T02:04:35.667Z,13.37
2017-06-27T02:05:45.620Z,13.39
2017-06-27T02:06:55.584Z,13.3
2017-06-27T02:08:05.850Z,13.43
2017-06-27T02:09:16.357Z,13.33
2017-06-27T02:10:26.609Z,13.37
2017-06-27T02:11:36.870Z,13.36
2017-06-27T02:12:46.819Z,13.46
2017-06-27T02:13:57.084Z,13.4
2017-06-27T02:15:07.279Z,13.4
2017-06-27T02:16:17.564Z,13.37
2017-06-27T02:17:27.815Z,13.37
2017-06-27T02:18:37.757Z,13.3
2017-06-27T02:19:48.007Z,13.36
2017-06-27T02:20:58.531Z,13.28
2017-06-27T02:22:08.805Z,13.2
2017-06-27T02:23:19.073Z,13.24
2017-06-27T02:24:29.327Z,13.36
2017-06-27T02:25:39.596Z,13.27
2017-06-27T02:26:49.784Z,13.28
2017-06-27T02:28:00.038Z,13.21
2017-06-27T02:29:09.988Z,13.36
2017-06-27T02:30:20.260Z,13.3
2017-06-27T02:31:30.509Z,13.31
2017-06-27T02:32:40.401Z,13.27
2017-06-27T02:33:50.663Z,13.24
2017-06-27T02:35:00.914Z,13.24
2017-06-27T02:36:10.865Z,13.26
2017-06-27T02:37:21.145Z,13.23
2017-06-27T02:38:31.637Z,13.21
2017-06-27T02:39:41.585Z,13.2
2017-06-27T02:40:51.826Z,13.11
2017-06-27T02:42:01.776Z,13.12
2017-06-27T02:43:12.045Z,13.09
2017-06-27T02:44:22.254Z,13.11
2017-06-27T02:45:32.503Z,13.08
2017-06-27T02:46:42.442Z,13.11
2017-06-27T02:47:52.685Z,13.06
2017-06-27T02:49:02.630Z,13.09
2017-06-27T02:50:12.822Z,13.08
2017-06-27T02:51:23.072Z,13.05
2017-06-27T02:52:33.045Z,13.08
2017-06-27T02:53:43.295Z,13.11
2017-06-27T02:54:53.572Z,13.06
2017-06-27T02:56:03.764Z,13.03
2017-06-27T02:57:13.719Z,13.08
2017-06-27T02:58:23.975Z,13.06
2017-06-27T02:59:33.923Z,13.08
2017-06-27T03:00:44.187Z,13.02
2017-06-27T03:01:54.071Z,13.09
2017-06-27T03:03:04.019Z,13.09
2017-06-27T03:04:14.286Z,13.08
2017-06-27T03:05:24.539Z,12.95
2017-06-27T03:06:34.806Z,13.01
2017-06-27T03:07:45.609Z,13.02
2017-06-27T03:08:55.864Z,13.08
2017-06-27T03:10:05.497Z,12.99
2017-06-27T03:11:15.759Z,13.08
2017-06-27T03:12:25.707Z,12.99
2017-06-27T03:13:35.590Z,13.06
2017-06-27T03:14:45.847Z,12.95
2017-06-27T03:15:56.100Z,13.01
2017-06-27T03:17:06.045Z,13.08
2017-06-27T03:18:16.313Z,13.09
2017-06-27T03:19:26.864Z,13.03
2017-06-27T03:20:37.105Z,13.08
2017-06-27T03:21:47.369Z,13.05
2017-06-27T03:22:57.017Z,13.05
2017-06-27T03:24:06.972Z,13.08
2017-06-27T03:25:17.465Z,13.02
2017-06-27T03:26:27.723Z,12.93
2017-06-27T03:27:37.982Z,12.98
2017-06-27T03:28:48.245Z,12.98
2017-06-27T03:29:58.500Z,12.99
2017-06-27T03:31:08.692Z,12.93
2017-06-27T03:32:18.961Z,12.91
2017-06-27T03:33:29.226Z,12.98
2017-06-27T03:34:39.156Z,12.98
2017-06-27T03:35:49.441Z,12.94
2017-06-27T03:36:59.952Z,12.98
2017-06-27T03:38:10.201Z,13.05
2017-06-27T03:39:20.144Z,13.05
2017-06-27T03:40:30.410Z,13.01
2017-06-27T03:41:40.363Z,13.05
2017-06-27T03:42:50.867Z,13.03
2017-06-27T03:44:01.122Z,13.02
2017-06-27T03:45:11.383Z,13.06
2017-06-27T03:46:21.650Z,13.08
2017-06-27T03:47:31.914Z,13.05
2017-06-27T03:48:42.441Z,13.03
2017-06-27T03:49:52.385Z,13.05
2017-06-27T03:51:02.334Z,13.16
2017-06-27T03:52:12.592Z,13.12
2017-06-27T03:53:22.865Z,13.06
2017-06-27T03:54:33.061Z,13.11
2017-06-27T03:55:43.010Z,13.09
2017-06-27T03:56:53.271Z,13.13
2017-06-27T03:58:03.541Z,13.05
2017-06-27T03:59:13.788Z,13.09
2017-06-27T04:00:24.282Z,13.05
2017-06-27T04:01:33.921Z,12.99
2017-06-27T04:02:43.861Z,13.03
2017-06-27T04:03:54.116Z,13.12
2017-06-27T04:05:04.375Z,13.05
2017-06-27T04:06:14.872Z,13.11
2017-06-27T04:07:25.130Z,13.06
2017-06-27T04:08:35.396Z,13.19
2017-06-27T04:09:45.352Z,13.23
2017-06-27T04:10:54.986Z,13.28
2017-06-27T04:12:05.485Z,13.24
2017-06-27T04:13:15.734Z,13.26
2017-06-27T04:14:25.362Z,13.21
2017-06-27T04:15:35.620Z,13.31
2017-06-27T04:16:45.563Z,13.33
2017-06-27T04:17:56.061Z,13.26
2017-06-27T04:19:06.029Z,13.36
2017-06-27T04:20:15.963Z,13.36
2017-06-27T04:21:26.233Z,13.46
2017-06-27T04:22:36.509Z,13.47
2017-06-27T04:23:47.025Z,13.49
2017-06-27T04:24:57.319Z,13.58
2017-06-27T04:26:07.521Z,13.65
2017-06-27T04:27:17.769Z,13.7
2017-06-27T04:28:28.018Z,13.62
2017-06-27T04:29:38.528Z,13.8
2017-06-27T04:30:48.801Z,13.75
2017-06-27T04:31:58.774Z,13.83
2017-06-27T04:33:08.734Z,13.86
2017-06-27T04:34:18.677Z,13.87
2017-06-27T04:35:29.181Z,13.91
2017-06-27T04:36:39.439Z,13.87
2017-06-27T04:37:49.734Z,13.87
2017-06-27T04:38:59.680Z,13.93
2017-06-27T04:40:09.637Z,13.94
2017-06-27T04:41:20.142Z,13.87
2017-06-27T04:42:30.409Z,13.89
2017-06-27T04:43:40.678Z,13.95
2017-06-27T04:44:50.939Z,14.04
2017-06-27T04:46:01.192Z,14.04
2017-06-27T04:47:11.709Z,13.98
2017-06-27T04:48:21.656Z,14.03
2017-06-27T04:49:31.907Z,14.07
2017-06-27T04:50:41.862Z,14.04
2017-06-27T04:51:51.826Z,14.15
2017-06-27T04:53:02.323Z,14.15
2017-06-27T04:54:12.587Z,14.23
2017-06-27T04:55:22.540Z,14.31
2017-06-27T04:56:32.811Z,14.23
2017-06-27T04:57:42.773Z,14.3
2017-06-27T04:58:53.274Z,14.25
2017-06-27T05:00:02.906Z,14.23
2017-06-27T05:01:13.166Z,14.25
2017-06-27T05:02:23.429Z,14.28
2017-06-27T05:03:33.685Z,14.31
2017-06-27T05:04:44.175Z,14.31
2017-06-27T05:05:54.422Z,14.4
2017-06-27T05:07:04.373Z,14.4
2017-06-27T05:08:14.011Z,14.45
2017-06-27T05:09:23.978Z,14.58
2017-06-27T05:10:34.492Z,14.58
2017-06-27T05:11:44.762Z,14.59
2017-06-27T05:12:54.732Z,14.63
2017-06-27T05:14:04.985Z,14.63
2017-06-27T05:15:15.252Z,14.7
2017-06-27T05:16:25.450Z,14.78
2017-06-27T05:17:35.700Z,14.79
2017-06-27T05:18:45.949Z,14.78
2017-06-27T05:19:56.208Z,14.86
2017-06-27T05:21:06.456Z,14.86
2017-06-27T05:22:16.958Z,14.89
2017-06-27T05:23:27.226Z,14.85
2017-06-27T05:24:37.493Z,14.86
2017-06-27T05:25:47.745Z,14.9
2017-06-27T05:26:58.009Z,14.87
2017-06-27T05:28:08.518Z,14.94
2017-06-27T05:29:18.781Z,14.94
2017-06-27T05:30:29.031Z,15.05
2017-06-27T05:31:39.314Z,15.1
2017-06-27T05:32:49.264Z,15.12
2017-06-27T05:33:59.778Z,15.15
2017-06-27T05:35:10.032Z,15.23
2017-06-27T05:36:20.280Z,15.35
2017-06-27T05:37:30.221Z,15.39
2017-06-27T05:38:40.498Z,15.41
2017-06-27T05:39:51.015Z,15.33
2017-06-27T05:41:01.295Z,15.35
2017-06-27T05:42:11.536Z,15.35
2017-06-27T05:43:21.185Z,15.41
2017-06-27T05:44:31.458Z,15.45
2017-06-27T05:45:42.251Z,15.48
2017-06-27T05:46:52.231Z,15.55
2017-06-27T05:48:02.196Z,15.55
2017-06-27T05:49:12.457Z,15.76
2017-06-27T05:50:22.717Z,15.76
2017-06-27T05:51:32.961Z,15.85
2017-06-27T05:52:43.227Z,15.87
2017-06-27T05:53:53.496Z,15.83
2017-06-27T05:55:03.432Z,15.94
2017-06-27T05:56:13.393Z,15.98
2017-06-27T05:57:23.614Z,16
2017-06-27T05:58:33.891Z,15.94
2017-06-27T05:59:44.149Z,16
2017-06-27T06:00:54.415Z,15.96
2017-06-27T06:02:04.700Z,16.02
2017-06-27T06:03:15.218Z,16.05
2017-06-27T06:04:25.479Z,16.13
2017-06-27T06:05:35.429Z,16.25
2017-06-27T06:06:45.693Z,16.18
2017-06-27T06:07:55.950Z,16.26
2017-06-27T06:09:06.476Z,16.25
2017-06-27T06:10:16.431Z,16.28
2017-06-27T06:11:26.727Z,16.29
2017-06-27T06:12:36.677Z,16.44
2017-06-27T06:13:46.651Z,16.47
2017-06-27T06:14:57.202Z,16.65
2017-06-27T06:16:06.871Z,16.61
2017-06-27T06:17:16.830Z,16.51
2017-06-27T06:18:27.115Z,16.72
2017-06-27T06:19:37.401Z,16.73
2017-06-27T06:20:47.903Z,16.82
2017-06-27T06:21:58.179Z,16.84
2017-06-27T06:23:08.453Z,16.84
2017-06-27T06:24:18.100Z,16.84
2017-06-27T06:25:27.738Z,16.97
2017-06-27T06:26:38.271Z,17.1
2017-06-27T06:27:48.223Z,16.99
2017-06-27T06:28:58.192Z,17.01
2017-06-27T06:30:08.481Z,17.07
2017-06-27T06:31:18.140Z,17.13
2017-06-27T06:32:28.354Z,17.32
2017-06-27T06:33:38.329Z,17.24
2017-06-27T06:34:48.619Z,17.32
2017-06-27T06:35:58.848Z,17.3
2017-06-27T06:37:09.143Z,17.35
2017-06-27T06:38:19.407Z,17.41
2017-06-27T06:39:29.391Z,17.47
2017-06-27T06:40:38.731Z,17.44
2017-06-27T06:41:49.017Z,17.49
2017-06-27T06:42:59.307Z,17.47
2017-06-27T06:44:09.900Z,17.5
2017-06-27T06:45:19.891Z,17.57
2017-06-27T06:46:30.178Z,17.54
2017-06-27T06:47:40.163Z,17.65
2017-06-27T06:48:50.138Z,17.6
2017-06-27T06:50:00.725Z,17.72
2017-06-27T06:51:10.694Z,17.82
2017-06-27T06:52:20.730Z,17.93
2017-06-27T06:53:30.997Z,18.02
2017-06-27T06:54:41.277Z,18.11
2017-06-27T06:55:51.816Z,18.09
2017-06-27T06:57:01.801Z,18.23
2017-06-27T06:58:12.084Z,18.34
2017-06-27T06:59:22.358Z,18.36
2017-06-27T07:00:32.314Z,18.57
2017-06-27T07:01:42.869Z,18.63
2017-06-27T07:02:52.824Z,18.79
2017-06-27T07:04:02.784Z,18.83
2017-06-27T07:05:12.744Z,18.91
2017-06-27T07:06:22.715Z,18.86
2017-06-27T07:07:32.987Z,18.79
2017-06-27T07:08:43.267Z,18.81
2017-06-27T07:09:52.969Z,18.85
2017-06-27T07:11:03.271Z,18.92
2017-06-27T07:12:13.627Z,19.08
2017-06-27T07:13:24.183Z,19.04
2017-06-27T07:14:34.480Z,19.27
2017-06-27T07:15:44.462Z,19.34
2017-06-27T07:16:54.465Z,19.38
2017-06-27T07:18:04.743Z,19.52
2017-06-27T07:19:15.270Z,19.52
2017-06-27T07:20:25.557Z,19.48
2017-06-27T07:21:35.861Z,19.41
2017-06-27T07:22:45.860Z,19.53
2017-06-27T07:23:56.156Z,19.56
2017-06-27T07:25:06.728Z,19.64
2017-06-27T07:26:17.015Z,19.62
2017-06-27T07:27:27.306Z,19.75
2017-06-27T07:28:36.955Z,19.79
2017-06-27T07:29:47.257Z,19.82
2017-06-27T07:30:57.473Z,19.85
2017-06-27T07:32:07.454Z,19.82
2017-06-27T07:33:17.424Z,19.72
2017-06-27T07:34:27.676Z,19.56
2017-06-27T07:35:37.967Z,19.49
2017-06-27T07:36:48.505Z,19.59
2017-06-27T07:37:58.478Z,19.67
2017-06-27T07:39:08.738Z,19.64
2017-06-27T07:40:18.706Z,19.74
2017-06-27T07:41:28.672Z,19.7
2017-06-27T07:42:38.877Z,19.84
2017-06-27T07:43:49.159Z,19.89
2017-06-27T07:44:58.834Z,19.89
2017-06-27T07:46:09.116Z,19.81
2017-06-27T07:47:19.492Z,19.85
2017-06-27T07:48:30.022Z,19.84
2017-06-27T07:49:40.294Z,19.78
2017-06-27T07:50:50.577Z,19.82
2017-06-27T07:52:00.861Z,19.97
2017-06-27T07:53:11.141Z,20.11
2017-06-27T07:54:21.671Z,20.12
2017-06-27T07:55:31.640Z,20.1
2017-06-27T07:56:41.925Z,20.15
2017-06-27T07:57:52.209Z,20
2017-06-27T07:59:02.467Z,20
2017-06-27T08:00:12.996Z,19.87
2017-06-27T08:01:23.256Z,19.94
2017-06-27T08:02:32.647Z,19.93
2017-06-27T08:03:42.931Z,20.12
2017-06-27T08:04:53.208Z,20.17
2017-06-27T08:06:03.765Z,20.29
2017-06-27T08:07:14.031Z,20.3
2017-06-27T08:08:24.025Z,20.3
2017-06-27T08:09:34.299Z,20.12
2017-06-27T08:10:44.270Z,20.27
2017-06-27T08:11:54.847Z,20.34
2017-06-27T08:13:04.492Z,20.32
2017-06-27T08:14:14.779Z,20.24
2017-06-27T08:15:25.045Z,20.15
2017-06-27T08:16:35.323Z,20.11
2017-06-27T08:17:45.562Z,20.26
2017-06-27T08:18:55.838Z,20.11
2017-06-27T08:20:05.812Z,20.18
2017-06-27T08:21:15.474Z,20.08
2017-06-27T08:22:25.761Z,19.97
2017-06-27T08:23:35.717Z,19.99
2017-06-27T08:24:45.995Z,20.15
2017-06-27T08:25:56.326Z,20.24
2017-06-27T08:27:06.615Z,20.37
2017-06-27T08:28:16.914Z,20.64
2017-06-27T08:29:26.850Z,20.8
2017-06-27T08:30:36.829Z,20.86
2017-06-27T08:31:46.840Z,21.01
2017-06-27T08:32:57.147Z,21.11
2017-06-27T08:34:07.444Z,21.19
2017-06-27T08:35:17.712Z,21.35
2017-06-27T08:36:28.010Z,21.41
2017-06-27T08:37:37.745Z,21.44
2017-06-27T08:38:47.722Z,21.43
2017-06-27T08:39:57.702Z,21.48
2017-06-27T08:41:08.259Z,21.38
2017-06-27T08:42:18.234Z,21.22
2017-06-27T08:43:27.937Z,21.23
2017-06-27T08:44:38.262Z,21.4
2017-06-27T08:45:48.550Z,21.65
2017-06-27T08:46:59.116Z,21.89
2017-06-27T08:48:09.405Z,22.14
2017-06-27T08:49:19.698Z,22.38
2017-06-27T08:50:29.718Z,22.49
2017-06-27T08:51:39.691Z,22.78
2017-06-27T08:52:50.256Z,23.04
2017-06-27T08:54:00.534Z,23.34
2017-06-27T08:55:10.519Z,23.62
2017-06-27T08:56:20.853Z,23.76
2017-06-27T08:57:31.101Z,23.81
2017-06-27T08:58:41.281Z,23.7
2017-06-27T08:59:51.516Z,23.42
2017-06-27T09:01:01.159Z,23.1
2017-06-27T09:02:11.138Z,22.99
2017-06-27T09:03:21.445Z,22.86
2017-06-27T09:04:31.994Z,22.99
2017-06-27T09:05:41.936Z,23.28
2017-06-27T09:06:52.210Z,23.51
2017-06-27T09:08:02.453Z,23.73
2017-06-27T09:09:12.105Z,23.94
2017-06-27T09:10:22.429Z,23.96
2017-06-27T09:11:32.697Z,24.11
2017-06-27T09:12:42.944Z,24.32
2017-06-27T09:13:52.906Z,24.56
2017-06-27T09:15:02.860Z,24.77
2017-06-27T09:16:13.353Z,24.86
2017-06-27T09:17:23.281Z,25.03
2017-06-27T09:18:33.200Z,25.09
2017-06-27T09:19:43.115Z,25.3
2017-06-27T09:20:53.035Z,25.33
2017-06-27T09:22:03.203Z,25.31
2017-06-27T09:23:13.706Z,25.44
2017-06-27T09:24:23.973Z,25.54
2017-06-27T09:25:34.284Z,25.7
2017-06-27T09:26:44.215Z,25.92
2017-06-27T09:27:54.696Z,25.89
2017-06-27T09:29:04.945Z,25.98
2017-06-27T09:30:14.890Z,26.03
2017-06-27T09:31:25.331Z,25.91
2017-06-27T09:32:34.935Z,25.86
2017-06-27T09:33:44.837Z,25.66
2017-06-27T09:34:55.086Z,25.44
2017-06-27T09:36:05.039Z,25.15
2017-06-27T09:37:15.061Z,25.04
2017-06-27T09:38:25.304Z,24.86
2017-06-27T09:39:35.472Z,24.63
2017-06-27T09:40:45.731Z,24.28
2017-06-27T09:41:55.690Z,24.28
2017-06-27T09:43:05.642Z,24.09
2017-06-27T09:44:15.913Z,24.03
2017-06-27T09:45:26.120Z,23.86
2017-06-27T09:46:36.387Z,24.04
2017-06-27T09:47:46.354Z,24.18
2017-06-27T09:48:56.652Z,24.31
2017-06-27T09:50:06.914Z,24.36
2017-06-27T09:51:17.406Z,24.56
2017-06-27T09:52:27.657Z,24.69
2017-06-27T09:53:37.927Z,24.97
2017-06-27T09:54:48.240Z,25.44
2017-06-27T09:55:58.523Z,25.52
2017-06-27T09:57:09.066Z,25.3
2017-06-27T09:58:19.371Z,25
2017-06-27T09:59:29.684Z,25.31
2017-06-27T10:00:39.697Z,25.61
2017-06-27T10:01:49.983Z,25.78
2017-06-27T10:03:00.203Z,26.07
2017-06-27T10:04:10.498Z,26.26
2017-06-27T10:05:20.792Z,26.37
2017-06-27T10:06:31.099Z,26.76
2017-06-27T10:07:41.366Z,26.88
2017-06-27T10:08:51.903Z,27.15
2017-06-27T10:10:02.216Z,27.37
2017-06-27T10:11:12.509Z,27.67
2017-06-27T10:12:22.780Z,27.82
2017-06-27T10:13:32.755Z,28.16
2017-06-27T10:14:43.321Z,28.41
2017-06-27T10:15:53.309Z,28.65
2017-06-27T10:17:03.588Z,28.4
2017-06-27T10:18:13.249Z,28.6
2017-06-27T10:19:23.760Z,28.74
2017-06-27T10:20:34.279Z,29.06
2017-06-27T10:21:44.603Z,29.13
2017-06-27T10:22:54.916Z,28.82
2017-06-27T10:24:05.172Z,28.75
2017-06-27T10:25:15.170Z,28.06
2017-06-27T10:26:25.394Z,27.55
2017-06-27T10:27:35.039Z,26.36
2017-06-27T10:28:45.305Z,26.01
2017-06-27T10:29:55.593Z,25.52
2017-06-27T10:31:05.883Z,25.29
2017-06-27T10:32:16.398Z,25.29
2017-06-27T10:33:26.374Z,24.92
2017-06-27T10:34:36.651Z,25.16
2017-06-27T10:35:46.958Z,24.92
2017-06-27T10:36:57.239Z,25.06
2017-06-27T10:38:07.786Z,25.34
2017-06-27T10:39:17.779Z,25.51
2017-06-27T10:40:28.047Z,25.39
2017-06-27T10:41:38.361Z,25.25
2017-06-27T10:42:48.332Z,25.61
2017-06-27T10:43:58.555Z,26.04
2017-06-27T10:45:08.513Z,26.61
2017-06-27T10:46:18.802Z,26.6
2017-06-27T10:47:29.103Z,26.29
2017-06-27T10:48:39.472Z,25.98
2017-06-27T10:49:50.022Z,25.68
2017-06-27T10:51:00.294Z,25.63
2017-06-27T10:52:10.248Z,25.61
2017-06-27T10:53:20.537Z,25.93
2017-06-27T10:54:30.825Z,25.83
2017-06-27T10:55:41.038Z,25.93
2017-06-27T10:56:51.316Z,25.78
2017-06-27T10:58:01.661Z,25.76
2017-06-27T10:59:11.740Z,25.73
2017-06-27T11:00:21.722Z,25.78
2017-06-27T11:01:31.963Z,25.8
2017-06-27T11:02:42.268Z,25.81
2017-06-27T11:03:52.239Z,26.29
2017-06-27T11:05:02.531Z,26.45
2017-06-27T11:06:12.853Z,25.85
2017-06-27T11:07:23.414Z,25.44
2017-06-27T11:08:33.421Z,25.48
2017-06-27T11:09:43.711Z,25.77
2017-06-27T11:10:54.246Z,26.22
2017-06-27T11:12:04.536Z,26.73
2017-06-27T11:13:14.766Z,27.26
2017-06-27T11:14:25.103Z,27.64
2017-06-27T11:15:35.382Z,27.37
2017-06-27T11:16:45.330Z,27.33
2017-06-27T11:17:55.011Z,27.55
2017-06-27T11:19:05.554Z,27.5
2017-06-27T11:20:15.255Z,27.26
2017-06-27T11:21:25.233Z,27.04
2017-06-27T11:22:35.228Z,26.46
2017-06-27T11:23:45.532Z,26.33
2017-06-27T11:24:56.080Z,26.19
2017-06-27T11:26:06.060Z,25.67
2017-06-27T11:27:16.354Z,25.06
2017-06-27T11:28:26.633Z,24.86
2017-06-27T11:29:36.915Z,24.4
2017-06-27T11:30:47.453Z,24.04
2017-06-27T11:31:57.467Z,23.79
2017-06-27T11:33:07.768Z,23.88
2017-06-27T11:34:18.038Z,23.62
2017-06-27T11:35:28.334Z,23.58
2017-06-27T11:36:38.867Z,23.48
2017-06-27T11:37:49.168Z,23.56
2017-06-27T11:38:59.446Z,23.81
2017-06-27T11:40:09.711Z,23.92
2017-06-27T11:41:19.973Z,24.01
2017-06-27T11:42:30.196Z,23.82
2017-06-27T11:43:40.471Z,23.67
2017-06-27T11:44:50.735Z,23.77
2017-06-27T11:46:00.720Z,23.94
2017-06-27T11:47:10.702Z,24.19
2017-06-27T11:48:21.295Z,24.03
2017-06-27T11:49:30.952Z,24.14
2017-06-27T11:50:41.256Z,24
2017-06-27T11:51:51.528Z,24.01
2017-06-27T11:53:01.502Z,24.18
2017-06-27T11:54:12.038Z,24.22
2017-06-27T11:55:22.006Z,24.28
2017-06-27T11:56:32.301Z,24.28
2017-06-27T11:57:42.628Z,24.53
2017-06-27T11:58:52.906Z,24.56
2017-06-27T12:00:03.420Z,24.46
2017-06-27T12:01:13.713Z,24.75
2017-06-27T12:02:23.989Z,24.77
2017-06-27T12:03:33.642Z,24.77
2017-06-27T12:04:43.923Z,24.4
2017-06-27T12:05:54.146Z,24.38
2017-06-27T12:07:04.129Z,24.47
2017-06-27T12:08:14.420Z,24.48
2017-06-27T12:09:24.698Z,24.66
2017-06-27T12:10:34.972Z,24.97
2017-06-27T12:11:45.504Z,25.14
2017-06-27T12:12:55.708Z,25.03
2017-06-27T12:14:05.978Z,24.84
2017-06-27T12:15:15.970Z,24.34
2017-06-27T12:16:26.289Z,24.04
2017-06-27T12:17:37.836Z,23.77
2017-06-27T12:18:48.142Z,23.73
2017-06-27T12:19:58.450Z,23.69
2017-06-27T12:21:08.416Z,23.95
2017-06-27T12:22:18.395Z,24.14
2017-06-27T12:23:28.924Z,24.37
2017-06-27T12:24:39.196Z,24.22
2017-06-27T12:25:49.499Z,24.14
2017-06-27T12:26:59.795Z,24.21
2017-06-27T12:28:10.092Z,24.24
2017-06-27T12:29:20.299Z,24.43
2017-06-27T12:30:30.602Z,24.47
2017-06-27T12:31:40.899Z,24.48
2017-06-27T12:32:51.200Z,24.74
2017-06-27T12:34:01.480Z,25.03
2017-06-27T12:35:12.015Z,25.03
2017-06-27T12:36:22.301Z,25.12
2017-06-27T12:37:32.608Z,24.88
2017-06-27T12:38:42.292Z,24.48
2017-06-27T12:39:52.597Z,24.36
2017-06-27T12:41:03.149Z,24.29
2017-06-27T12:42:13.434Z,24.22
2017-06-27T12:43:23.744Z,24.13
2017-06-27T12:44:34.025Z,23.88
2017-06-27T12:45:44.292Z,23.88
2017-06-27T12:46:54.514Z,24
2017-06-27T12:48:04.528Z,24.13
2017-06-27T12:49:14.510Z,24.24
2017-06-27T12:50:24.787Z,24.36
2017-06-27T12:51:35.088Z,24.66
2017-06-27T12:52:45.618Z,24.71
2017-06-27T12:53:55.621Z,24.78
2017-06-27T12:55:05.941Z,24.94
2017-06-27T12:56:16.234Z,24.81
2017-06-27T12:57:26.417Z,24.71
2017-06-27T12:58:36.961Z,24.75
2017-06-27T12:59:46.932Z,24.79
2017-06-27T13:00:57.206Z,25.19
2017-06-27T13:02:07.497Z,25.78
2017-06-27T13:03:17.460Z,26.41
2017-06-27T13:04:28.021Z,26.91
2017-06-27T13:05:38.308Z,27.28
2017-06-27T13:06:48.293Z,27.52
2017-06-27T13:07:58.623Z,27.79
2017-06-27T13:09:08.596Z,27.94
2017-06-27T13:10:19.143Z,27.6
2017-06-27T13:11:29.416Z,27.55
2017-06-27T13:12:39.955Z,27.83
2017-06-27T13:13:49.912Z,27.67
2017-06-27T13:15:00.224Z,28.03
2017-06-27T13:16:10.778Z,28.45
2017-06-27T13:17:21.080Z,28.77
2017-06-27T13:18:31.365Z,28.55
2017-06-27T13:19:41.340Z,28.18
2017-06-27T13:20:51.302Z,27.85
2017-06-27T13:22:01.831Z,27.38
2017-06-27T13:23:12.111Z,27.29
2017-06-27T13:24:22.072Z,27.45
2017-06-27T13:25:32.356Z,27.85
2017-06-27T13:26:42.646Z,27.91
2017-06-27T13:27:53.229Z,27.73
2017-06-27T13:29:03.502Z,27.95
2017-06-27T13:30:13.486Z,28.13
2017-06-27T13:31:23.784Z,28.35
2017-06-27T13:32:33.761Z,28.68
2017-06-27T13:33:44.278Z,29.02
2017-06-27T13:34:54.793Z,29.3
2017-06-27T13:36:05.095Z,29.55
2017-06-27T13:37:15.371Z,29.96
2017-06-27T13:38:25.044Z,30.27
2017-06-27T13:39:35.574Z,30.44
2017-06-27T13:40:45.550Z,30.78
2017-06-27T13:41:55.827Z,31.23
2017-06-27T13:43:05.808Z,31.67
2017-06-27T13:44:15.769Z,31.92
2017-06-27T13:45:26.303Z,31.41
2017-06-27T13:46:36.587Z,30.52
2017-06-27T13:47:46.879Z,30.43
2017-06-27T13:48:57.165Z,30.65
2017-06-27T13:50:07.481Z,31.08
2017-06-27T13:51:17.753Z,31.37
2017-06-27T13:52:28.035Z,31.66
2017-06-27T13:53:38.345Z,31.79
2017-06-27T13:54:48.629Z,31.79
2017-06-27T13:55:58.608Z,32.37
2017-06-27T13:57:09.150Z,32.53
2017-06-27T13:58:19.122Z,32.08
2017-06-27T13:59:29.388Z,31.47
2017-06-27T14:00:39.363Z,31.44
2017-06-27T14:01:49.338Z,31.25
2017-06-27T14:02:59.875Z,30.26
2017-06-27T14:04:10.136Z,28.77
2017-06-27T14:05:20.101Z,27.93
2017-06-27T14:06:30.403Z,27.03
2017-06-27T14:07:40.703Z,26.52
2017-06-27T14:08:51.237Z,26.22
2017-06-27T14:10:01.215Z,25.77
2017-06-27T14:11:11.172Z,25.61
2017-06-27T14:12:21.144Z,25.41
2017-06-27T14:13:31.105Z,25.34
2017-06-27T14:14:41.637Z,25.71
2017-06-27T14:15:51.612Z,26.13
2017-06-27T14:17:01.608Z,26.7
2017-06-27T14:18:11.899Z,26.86
2017-06-27T14:19:22.178Z,27.25
2017-06-27T14:20:32.715Z,27.83
2017-06-27T14:21:43.009Z,28.28
2017-06-27T14:22:53.299Z,28.82
2017-06-27T14:24:02.953Z,29.4
2017-06-27T14:25:13.231Z,29.64
2017-06-27T14:26:23.772Z,30.02
2017-06-27T14:27:34.044Z,30.39
2017-06-27T14:28:44.332Z,29.73
2017-06-27T14:29:54.601Z,29.35
2017-06-27T14:31:04.576Z,28.34
2017-06-27T14:32:15.127Z,27.52
2017-06-27T14:33:25.415Z,26.98
2017-06-27T14:34:35.704Z,26.52
2017-06-27T14:35:45.978Z,26.06
2017-06-27T14:36:55.946Z,26.18
2017-06-27T14:38:06.472Z,26.63
2017-06-27T14:39:16.128Z,26.98
2017-06-27T14:40:26.121Z,27.44
2017-06-27T14:41:36.395Z,27.86
2017-06-27T14:42:46.663Z,28.23
2017-06-27T14:43:57.181Z,28.01
2017-06-27T14:45:07.465Z,27.43
2017-06-27T14:46:17.741Z,27.28
2017-06-27T14:47:27.717Z,27.45
2017-06-27T14:48:37.970Z,27.45
2017-06-27T14:49:48.195Z,27.16
2017-06-27T14:50:58.506Z,26.91
2017-06-27T14:52:08.456Z,27.19
2017-06-27T14:53:18.749Z,27.47
2017-06-27T14:54:28.721Z,27.88
2017-06-27T14:55:39.231Z,28.12
2017-06-27T14:56:49.521Z,28.37
2017-06-27T14:57:59.172Z,28.37
2017-06-27T14:59:09.464Z,28.5
2017-06-27T15:00:19.421Z,28.56
2017-06-27T15:01:29.638Z,28.65
2017-06-27T15:02:39.909Z,28.8
2017-06-27T15:03:50.181Z,29
2017-06-27T15:05:00.471Z,29.24
2017-06-27T15:06:10.743Z,29.43
2017-06-27T15:07:20.712Z,29.16